M I D A S
Marine Information and Data Acquisition System
Tripno 641 of the Zeeleeuw from 2004-02-03 07:40:56 to 2004-02-03 15:59:30
Back to CruiseResearch ActivitiesStationsMapUnderway DataData graphs

EquipmentUnitsComments
TimeDGPSUTC
LatitudeDGPSDM.mWGS84
LongitudeDGPSDM.mWGS84
SpeedMeteo Stationm/sRelative wind speed
DirectionMeteo StationdegRelative wind direction
TemperatureMeteo Stationdeg CelciusAir temperature
PressureMeteo StationPaAtmospheric pressure
HumidityMeteo Station%Relative humidity
Missing or incorrect values are displayed as -999
Metereological data collected by the RV Zeeleeuw from 2004-02-03 07:40:56 to 2004-02-03 15:59:30
Time Latitude Longitude Speed Direction Temperature Pressure Humidity
2004-02-03 07:41 51°13.592 2°56.107 5.4 123 12.7 102250 82
2004-02-03 07:43 51°13.601 2°56.07 5.5 150 12.7 102250 82
2004-02-03 07:44 51°13.626 2°55.986 3.1 113 12.7 102240 82
2004-02-03 07:45 51°13.655 2°55.882 2.8 141 12.7 102250 82
2004-02-03 07:45 51°13.673 2°55.779 6.3 133 12.7 102240 82
2004-02-03 07:46 51°13.707 2°55.784 2.2 260 12.7 102240 82
2004-02-03 07:47 51°13.774 2°55.694 5.5 281 12.7 102240 82
2004-02-03 07:48 51°13.874 2°55.596 2.8 257 12.8 102230 82
2004-02-03 07:49 51°13.995 2°55.507 2.9 304 12.8 102230 82
2004-02-03 07:50 51°14.121 2°55.418 1.1 305 12.8 102230 82
2004-02-03 07:51 51°14.214 2°55.324 2.7 262 12.8 102240 82
2004-02-03 07:52 51°14.272 2°55.235 3.8 323 12.8 102230 82
2004-02-03 07:53 51°14.316 2°55.151 3.9 283 12.8 102240 82
2004-02-03 07:54 51°14.407 2°55.018 6.8 296 12.8 102230 82
2004-02-03 07:55 51°14.569 2°54.891 4.7 303 12.8 102230 82
2004-02-03 07:56 51°14.705 2°54.773 5.4 278 12.7 102240 82
2004-02-03 07:57 51°14.827 2°54.669 5.3 289 12.7 102240 82
2004-02-03 07:58 51°15.002 2°54.503 7 304 12.6 102240 82
2004-02-03 07:59 51°15.197 2°54.326 7.9 298 12.5 102230 81
2004-02-03 08:01 51°15.403 2°54.143 7.1 299 12.4 102240 81
2004-02-03 08:01 51°15.603 2°53.965 7.1 295 12.3 102230 81
2004-02-03 08:03 51°15.807 2°53.775 7.7 299 12.1 102230 81
2004-02-03 08:03 51°16.002 2°53.597 7.9 301 12 102230 81
2004-02-03 08:04 51°16.204 2°53.411 7.9 294 11.9 102230 82
2004-02-03 08:05 51°16.403 2°53.232 7.3 294 11.7 102170 82
2004-02-03 08:06 51°16.599 2°53.052 7.7 294 11.6 102170 82
2004-02-03 08:07 51°16.799 2°52.887 5.9 281 11.5 102160 82
2004-02-03 08:08 51°17.007 2°52.77 5.6 288 11.3 102170 82
2004-02-03 08:09 51°17.224 2°52.657 4.4 276 11.2 102160 82
2004-02-03 08:10 51°17.449 2°52.57 4.9 269 11.2 102170 83
2004-02-03 08:11 51°17.673 2°52.542 3 264 11.1 102170 83
2004-02-03 08:12 51°17.905 2°52.515 4.1 271 11 102170 83
2004-02-03 08:13 51°18.135 2°52.529 3.2 265 11 102180 83
2004-02-03 08:14 51°18.335 2°52.701 4.5 98 11 102180 83
2004-02-03 08:15 51°18.481 2°52.992 5.8 91 10.9 102180 84
2004-02-03 08:16 51°18.599 2°53.32 6.3 58 10.9 102180 84
2004-02-03 08:17 51°18.692 2°53.67 7.1 86 10.8 102160 84
2004-02-03 08:18 51°18.788 2°54.014 6 77 10.9 102180 85
2004-02-03 08:19 51°18.882 2°54.359 5.5 75 10.8 102180 85
2004-02-03 08:20 51°18.977 2°54.7 7.1 82 10.7 102190 85
2004-02-03 08:21 51°19.081 2°55.056 6 78 10.8 102180 86
2004-02-03 08:22 51°19.183 2°55.403 5.9 89 10.8 102180 86
2004-02-03 08:23 51°19.279 2°55.758 7 88 11 102180 86
2004-02-03 08:25 51°19.371 2°56.118 6.3 97 11 102180 85
2004-02-03 08:26 51°19.469 2°56.478 5.5 95 11 102180 85
2004-02-03 08:26 51°19.562 2°56.83 6 105 11 102180 85
2004-02-03 08:27 51°19.657 2°57.188 7.2 93 11.1 102190 85
2004-02-03 08:28 51°19.749 2°57.55 7.2 105 11.1 102190 85
2004-02-03 08:29 51°19.843 2°57.911 5.8 108 11.1 102200 85
2004-02-03 08:30 51°19.937 2°58.274 4.8 98 11.2 102200 84
2004-02-03 08:31 51°20.025 2°58.644 6.2 92 11.1 102200 84
2004-02-03 08:32 51°20.107 2°59.019 5.5 101 11 102200 84
2004-02-03 08:33 51°20.203 2°59.38 6.8 87 11 102190 84
2004-02-03 08:34 51°20.286 2°59.737 7 95 10.9 102190 84
2004-02-03 08:35 51°20.379 3°0.1 6.8 92 10.8 102190 84
2004-02-03 08:36 51°20.464 3°0.467 7.3 93 10.8 102200 85
2004-02-03 08:37 51°20.55 3°0.833 7.2 87 10.8 102200 85
2004-02-03 08:38 51°20.635 3°1.204 7.6 86 10.8 102200 85
2004-02-03 08:39 51°20.721 3°1.578 6.8 80 10.7 102200 85
2004-02-03 08:40 51°20.813 3°1.948 6.6 79 10.6 102200 85
2004-02-03 08:41 51°20.911 3°2.316 6.8 82 10.6 102200 85
2004-02-03 08:42 51°21.009 3°2.678 6.3 80 10.6 102200 86
2004-02-03 08:43 51°21.11 3°3.041 8 81 10.6 102200 86
2004-02-03 08:44 51°21.198 3°3.418 8.5 84 10.6 102190 86
2004-02-03 08:45 51°21.289 3°3.784 8.3 81 10.6 102200 86
2004-02-03 08:46 51°21.383 3°4.16 9.3 87 10.7 102200 86
2004-02-03 08:47 51°21.476 3°4.542 7.5 82 10.7 102200 86
2004-02-03 08:49 51°21.562 3°4.929 8.4 83 10.7 102200 86
2004-02-03 08:49 51°21.642 3°5.306 8.8 85 10.8 102190 86
2004-02-03 08:50 51°21.721 3°5.686 8.9 85 10.9 102190 86
2004-02-03 08:51 51°21.797 3°6.071 7.7 82 10.9 102190 86
2004-02-03 08:52 51°21.871 3°6.457 7.4 75 10.9 102190 85
2004-02-03 08:53 51°21.945 3°6.837 8.4 81 10.9 102190 85
2004-02-03 08:54 51°22.013 3°7.24 7.5 76 11 102190 85
2004-02-03 08:55 51°22.05 3°7.647 8.7 72 11 102190 85
2004-02-03 08:56 51°22.104 3°8.049 7.6 71 11.1 102200 84
2004-02-03 08:57 51°22.164 3°8.446 7.1 73 11.1 102200 84
2004-02-03 08:58 51°22.224 3°8.849 8.1 68 11.1 102200 84
2004-02-03 08:59 51°22.281 3°9.253 6.9 73 11.1 102200 84
2004-02-03 09:00 51°22.331 3°9.66 7.8 66 11.1 102200 84
2004-02-03 09:01 51°22.383 3°10.07 8.1 67 11.2 102210 84
2004-02-03 09:02 51°22.433 3°10.479 7.4 72 11.3 102210 84
2004-02-03 09:03 51°22.468 3°10.892 9.1 63 11.4 102200 83
2004-02-03 09:04 51°22.495 3°11.316 8.5 68 11.4 102210 83
2004-02-03 09:05 51°22.524 3°11.733 8 63 11.7 102200 83
2004-02-03 09:06 51°22.551 3°12.16 8.7 61 11.8 102200 82
2004-02-03 09:07 51°22.567 3°12.588 8.4 61 11.8 102200 82
2004-02-03 09:08 51°22.573 3°12.995 7.7 66 11.9 102210 81
2004-02-03 09:10 51°22.565 3°13.236 7.1 112 12 102250 81
2004-02-03 09:10 51°22.573 3°13.322 6.3 125 12 102240 80
2004-02-03 09:11 51°22.583 3°13.379 6.3 121 12.1 102270 80
2004-02-03 09:12 51°22.59 3°13.481 9.5 97 12 102270 79
2004-02-03 09:13 51°22.595 3°13.598 6.8 98 12.1 102270 80
2004-02-03 09:14 51°22.597 3°13.708 7.6 101 12.2 102270 79
2004-02-03 09:15 51°22.597 3°13.81 7.3 100 12.3 102270 79
2004-02-03 09:17 51°22.599 3°13.911 7.4 99 12.3 102270 78
2004-02-03 09:17 51°22.602 3°14.022 7.3 100 12.3 102270 78
2004-02-03 09:18 51°22.604 3°14.141 9 100 12.3 102260 78
2004-02-03 09:19 51°22.608 3°14.256 8.1 112 12.4 102270 78
2004-02-03 09:20 51°22.616 3°14.372 7.8 118 12.3 102270 77
2004-02-03 09:21 51°22.626 3°14.493 8.2 116 12.2 102270 78
2004-02-03 09:22 51°22.639 3°14.615 8.7 121 12.2 102270 78
2004-02-03 09:23 51°22.653 3°14.736 7.3 119 12.1 102270 78
2004-02-03 09:24 51°22.667 3°14.856 6.7 129 12.1 102270 78
2004-02-03 09:25 51°22.682 3°14.975 9.3 125 12 102270 78
2004-02-03 09:26 51°22.695 3°15.094 8.7 118 11.9 102270 78
2004-02-03 09:27 51°22.708 3°15.213 7.2 125 11.8 102270 78
2004-02-03 09:28 51°22.722 3°15.332 8.8 126 11.8 102280 79
2004-02-03 09:29 51°22.742 3°15.449 9.3 131 11.9 102270 79
2004-02-03 09:30 51°22.763 3°15.567 8.1 132 11.9 102270 79
2004-02-03 09:31 51°22.785 3°15.686 8.8 131 11.9 102270 78
2004-02-03 09:32 51°22.809 3°15.807 8.4 141 11.9 102270 79
2004-02-03 09:33 51°22.838 3°15.929 8.8 144 11.9 102270 79
2004-02-03 09:34 51°22.868 3°16.047 8.1 144 12.1 102260 78
2004-02-03 09:35 51°22.9 3°16.163 7.6 149 12 102270 78
2004-02-03 09:36 51°22.929 3°16.282 7.6 143 12.1 102270 78
2004-02-03 09:38 51°22.958 3°16.405 6.7 128 12.1 102270 78
2004-02-03 09:38 51°22.983 3°16.523 8.2 135 12.1 102280 77
2004-02-03 09:39 51°23.01 3°16.638 7.9 137 12 102280 77
2004-02-03 09:40 51°23.037 3°16.752 8.6 132 12 102270 78
2004-02-03 09:42 51°23.058 3°16.867 8.7 120 12 102270 77
2004-02-03 09:42 51°23.073 3°16.973 9.6 123 12 102280 78
2004-02-03 09:43 51°23.083 3°17.075 9.3 110 12.1 102280 77
2004-02-03 09:45 51°23.091 3°17.218 10 98 12.2 102270 77
2004-02-03 09:46 51°23.096 3°17.356 8.7 92 12.2 102280 77
2004-02-03 09:47 51°23.095 3°17.468 7.6 75 12.2 102280 76
2004-02-03 09:48 51°23.075 3°17.565 9.7 25 12.1 102280 77
2004-02-03 09:49 51°23.052 3°17.612 9.1 344 12.2 102290 77
2004-02-03 09:50 51°23.05 3°17.617 9.4 301 12.2 102280 76
2004-02-03 09:51 51°23.061 3°17.596 9.7 308 12.2 102300 77
2004-02-03 09:52 51°23.074 3°17.573 9.6 302 12.2 102300 76
2004-02-03 09:53 51°23.092 3°17.547 9.6 295 12.3 102300 76
2004-02-03 09:54 51°23.117 3°17.519 8.1 279 12.2 102300 76
2004-02-03 09:55 51°23.151 3°17.496 10.3 288 12.3 102300 76
2004-02-03 09:56 51°23.185 3°17.475 9.8 276 12.4 102310 76
2004-02-03 09:57 51°23.218 3°17.453 8.5 277 12.3 102300 76
2004-02-03 09:58 51°23.248 3°17.427 8.3 280 12.3 102310 76
2004-02-03 09:59 51°23.284 3°17.4 8.4 272 12.2 102300 76
2004-02-03 10:00 51°23.323 3°17.379 7.9 261 12.2 102310 76
2004-02-03 10:01 51°23.365 3°17.363 8.6 268 12.1 102300 76
2004-02-03 10:02 51°23.404 3°17.341 8.2 262 12.1 102310 76
2004-02-03 10:03 51°23.445 3°17.319 8 262 12.2 102320 76
2004-02-03 10:04 51°23.491 3°17.297 6.3 248 12.2 102310 76
2004-02-03 10:05 51°23.545 3°17.325 6.5 159 12.1 102310 76
2004-02-03 10:06 51°23.575 3°17.429 9.1 95 12.3 102290 76
2004-02-03 10:07 51°23.562 3°17.536 8.6 54 12.3 102300 76
2004-02-03 10:08 51°23.529 3°17.597 8.3 2 12.4 102310 76
2004-02-03 10:09 51°23.495 3°17.595 8.7 339 12.3 102300 76
2004-02-03 10:10 51°23.475 3°17.561 8.7 317 12.3 102310 76
2004-02-03 10:11 51°23.458 3°17.517 9.1 320 12.3 102310 75
2004-02-03 10:12 51°23.447 3°17.465 9.9 304 12.3 102310 76
2004-02-03 10:13 51°23.452 3°17.419 9.7 296 12.2 102300 75
2004-02-03 10:14 51°23.463 3°17.39 9.9 290 12.2 102300 76
2004-02-03 10:15 51°23.477 3°17.367 9.6 284 12.3 102300 76
2004-02-03 10:16 51°23.492 3°17.347 9.4 286 12.3 102300 76
2004-02-03 10:17 51°23.508 3°17.328 8.3 283 12.3 102320 75
2004-02-03 10:18 51°23.523 3°17.327 11.1 281 12.2 102310 75
2004-02-03 10:19 51°23.537 3°17.34 10 294 12.3 102310 76
2004-02-03 10:20 51°23.552 3°17.364 9.1 277 12.3 102310 75
2004-02-03 10:21 51°23.567 3°17.379 10 301 12.4 102290 75
2004-02-03 10:22 51°23.543 3°17.208 13.4 329 12.4 102250 75
2004-02-03 10:23 51°23.494 3°16.909 12.4 332 12.5 102240 75
2004-02-03 10:24 51°23.432 3°16.607 13 330 12.5 102240 75
2004-02-03 10:25 51°23.374 3°16.306 12.8 330 12.6 102240 74
2004-02-03 10:26 51°23.317 3°16.001 12.5 332 12.6 102240 74
2004-02-03 10:27 51°23.262 3°15.692 12.8 330 12.6 102240 74
2004-02-03 10:28 51°23.207 3°15.384 12.8 332 12.5 102240 74
2004-02-03 10:29 51°23.149 3°15.073 13.7 337 12.5 102240 74
2004-02-03 10:30 51°23.094 3°14.773 14.3 332 12.4 102240 74
2004-02-03 10:31 51°23.032 3°14.472 13.3 334 12.5 102230 74
2004-02-03 10:32 51°22.96 3°14.174 12.8 337 12.6 102210 74
2004-02-03 10:33 51°22.89 3°13.887 13.3 330 12.7 102210 74
2004-02-03 10:34 51°22.806 3°13.602 15.1 339 12.7 102210 74
2004-02-03 10:35 51°22.753 3°13.307 15 333 12.8 102210 73
2004-02-03 10:36 51°22.728 3°13 17.9 331 12.8 102210 73
2004-02-03 10:37 51°22.703 3°12.688 15.5 330 12.9 102200 73
2004-02-03 10:38 51°22.678 3°12.387 16 326 12.9 102190 73
2004-02-03 10:39 51°22.654 3°12.079 17 328 12.9 102200 73
2004-02-03 10:40 51°22.63 3°11.763 18.5 327 13 102210 73
2004-02-03 10:41 51°22.606 3°11.45 18.2 331 13 102200 72
2004-02-03 10:42 51°22.583 3°11.141 17.7 326 13 102200 72
2004-02-03 10:43 51°22.56 3°10.827 17.3 325 12.9 102210 72
2004-02-03 10:44 51°22.526 3°10.506 15.3 330 12.8 102220 72
2004-02-03 10:45 51°22.481 3°10.191 15.9 328 12.8 102220 72
2004-02-03 10:46 51°22.422 3°9.891 17.6 329 12.8 102220 73
2004-02-03 10:47 51°22.368 3°9.58 15.8 332 12.7 102220 73
2004-02-03 10:48 51°22.318 3°9.27 14.5 330 12.7 102230 73
2004-02-03 10:49 51°22.275 3°8.963 15.1 327 12.7 102230 73
2004-02-03 10:50 51°22.283 3°8.64 13.2 322 12.6 102240 73
2004-02-03 10:51 51°22.299 3°8.315 13.4 324 12.5 102240 73
2004-02-03 10:52 51°22.31 3°7.991 14.2 317 12.4 102240 74
2004-02-03 10:53 51°22.316 3°7.663 13.7 323 12.3 102240 74
2004-02-03 10:54 51°22.313 3°7.341 12.9 320 12.2 102240 75
2004-02-03 10:55 51°22.299 3°7.023 13.1 326 12.2 102250 75
2004-02-03 10:56 51°22.269 3°6.713 13.1 331 12.1 102240 76
2004-02-03 10:57 51°22.212 3°6.408 13.5 330 12.1 102240 75
2004-02-03 10:58 51°22.153 3°6.099 13.9 328 12 102240 75
2004-02-03 10:59 51°22.095 3°5.793 13.5 329 12 102240 75
2004-02-03 11:00 51°22.042 3°5.491 15.1 331 12 102240 76
2004-02-03 11:01 51°21.985 3°5.183 14.2 333 12 102230 76
2004-02-03 11:02 51°21.894 3°4.899 14 338 11.9 102230 76
2004-02-03 11:03 51°21.8 3°4.624 14.5 339 11.8 102230 76
2004-02-03 11:04 51°21.703 3°4.338 14.7 335 11.7 102230 76
2004-02-03 11:05 51°21.61 3°4.059 15.3 340 11.7 102230 76
2004-02-03 11:06 51°21.514 3°3.772 14.5 335 11.6 102220 77
2004-02-03 11:07 51°21.436 3°3.488 16.4 334 11.6 102220 77
2004-02-03 11:08 51°21.368 3°3.186 15.7 332 11.6 102210 77
2004-02-03 11:09 51°21.305 3°2.882 15.3 332 11.6 102210 77
2004-02-03 11:10 51°21.254 3°2.574 15.1 325 11.7 102200 77
2004-02-03 11:11 51°21.218 3°2.253 16.1 327 11.7 102200 77
2004-02-03 11:12 51°21.183 3°1.937 16.7 326 11.7 102200 77
2004-02-03 11:13 51°21.147 3°1.627 15.5 332 11.7 102200 77
2004-02-03 11:14 51°21.109 3°1.308 16.6 327 11.7 102200 77
2004-02-03 11:15 51°21.072 3°0.998 15.1 332 11.7 102190 77
2004-02-03 11:16 51°21.033 3°0.679 16.4 330 11.6 102210 77
2004-02-03 11:17 51°20.995 3°0.355 14.7 324 11.6 102210 77
2004-02-03 11:18 51°20.951 3°0.139 13.5 324 11.5 102230 78
2004-02-03 11:19 51°20.942 2°59.973 13.1 322 11.5 102230 78
2004-02-03 11:21 51°20.932 2°59.893 11.2 317 11.6 -999 78
2004-02-03 11:22 51°20.938 2°59.879 10.7 319 11.6 102270 78
2004-02-03 11:23 51°20.946 2°59.851 10.1 303 11.6 102250 78
2004-02-03 11:24 51°20.967 2°59.793 10.3 276 11.6 102260 78
2004-02-03 11:25 51°21.019 2°59.749 8.2 240 11.6 102270 78
2004-02-03 11:26 51°21.083 2°59.753 5.8 198 11.6 102260 78
2004-02-03 11:27 51°21.135 2°59.814 8.7 146 11.7 102260 78
2004-02-03 11:28 51°21.168 2°59.902 9.4 123 11.7 102260 77
2004-02-03 11:29 51°21.188 2°59.997 9.2 113 11.7 102260 78
2004-02-03 11:30 51°21.202 3°0.089 9.1 111 11.7 102260 78
2004-02-03 11:31 51°21.214 3°0.182 9.9 111 11.7 102260 78
2004-02-03 11:32 51°21.227 3°0.274 10.9 115 11.7 102260 78
2004-02-03 11:33 51°21.242 3°0.365 9.3 117 11.7 102260 77
2004-02-03 11:34 51°21.257 3°0.457 9.8 116 11.8 102250 77
2004-02-03 11:35 51°21.274 3°0.55 10.7 117 11.7 102250 77
2004-02-03 11:36 51°21.291 3°0.642 8.9 125 11.7 102250 77
2004-02-03 11:37 51°21.31 3°0.733 9.5 120 11.7 102250 77
2004-02-03 11:38 51°21.331 3°0.822 10 116 11.8 102250 77
2004-02-03 11:39 51°21.352 3°0.911 10.5 124 11.8 102240 77
2004-02-03 11:40 51°21.37 3°1 11 127 11.9 102240 77
2004-02-03 11:41 51°21.39 3°1.09 9.8 119 11.9 102240 77
2004-02-03 11:42 51°21.408 3°1.181 11.3 128 11.9 102240 77
2004-02-03 11:43 51°21.428 3°1.274 10.3 124 11.9 102240 77
2004-02-03 11:44 51°21.446 3°1.366 10.8 120 11.9 102250 77
2004-02-03 11:45 51°21.463 3°1.459 10.7 120 11.9 102250 77
2004-02-03 11:46 51°21.479 3°1.552 12.2 125 11.9 102250 76
2004-02-03 11:47 51°21.496 3°1.643 10.7 119 11.9 102240 77
2004-02-03 11:48 51°21.511 3°1.735 10.6 124 11.9 102240 77
2004-02-03 11:49 51°21.527 3°1.825 11.5 124 12 102250 76
2004-02-03 11:50 51°21.543 3°1.917 11.1 125 12.1 102240 76
2004-02-03 11:51 51°21.564 3°2.009 10.5 125 12.1 102230 76
2004-02-03 11:52 51°21.585 3°2.099 12.6 126 12.1 102240 76
2004-02-03 11:53 51°21.606 3°2.188 11.7 127 12.1 102240 75
2004-02-03 11:54 51°21.626 3°2.275 11.7 130 12.1 102250 75
2004-02-03 11:55 51°21.645 3°2.353 12.3 125 12.1 102240 75
2004-02-03 11:56 51°21.661 3°2.417 12.9 114 12.1 102250 75
2004-02-03 11:57 51°21.673 3°2.48 14.5 92 12.1 102250 75
2004-02-03 11:58 51°21.649 3°2.55 15.8 33 12.1 102230 75
2004-02-03 11:59 51°21.617 3°2.544 16.1 336 12.4 102230 75
2004-02-03 12:00 51°21.611 3°2.481 14.4 326 12.5 102220 73
2004-02-03 12:01 51°21.614 3°2.428 14.2 318 12.5 102210 73
2004-02-03 12:02 51°21.623 3°2.38 13.8 315 12.5 102220 73
2004-02-03 12:03 51°21.638 3°2.329 14.8 237 12.4 102220 72
2004-02-03 12:04 51°21.655 3°2.283 13 302 12.4 102210 73
2004-02-03 12:05 51°21.676 3°2.237 14.7 297 12.4 102210 73
2004-02-03 12:06 51°21.701 3°2.193 16.2 300 12.5 102210 72
2004-02-03 12:07 51°21.729 3°2.145 13.8 292 12.5 102210 72
2004-02-03 12:08 51°21.761 3°2.1 12.3 276 12.4 102210 72
2004-02-03 12:09 51°21.801 3°2.061 14.3 274 12.4 102220 72
2004-02-03 12:10 51°21.847 3°2.03 14.9 273 12.3 102220 72
2004-02-03 12:11 51°21.896 3°1.999 14.3 263 12.3 102220 72
2004-02-03 12:12 51°21.952 3°1.975 8.7 251 12.3 102230 72
2004-02-03 12:13 51°22.011 3°1.965 10 243 12.2 102220 72
2004-02-03 12:14 51°22.071 3°1.975 11.1 234 12.2 102240 72
2004-02-03 12:15 51°22.132 3°2.007 10.3 204 12.2 102250 72
2004-02-03 12:16 51°22.191 3°2.057 6.4 185 12.3 102250 72
2004-02-03 12:17 51°22.239 3°2.121 11.2 166 12.5 102250 72
2004-02-03 12:18 51°22.278 3°2.195 10.4 152 12.4 102250 71
2004-02-03 12:19 51°22.308 3°2.274 12 135 12.3 102240 72
2004-02-03 12:20 51°22.33 3°2.353 10.9 227 12.3 102240 72
2004-02-03 12:21 51°22.35 3°2.43 10 127 12.3 102250 72
2004-02-03 12:22 51°22.368 3°2.51 11.2 132 12.1 102250 72
2004-02-03 12:23 51°22.389 3°2.6 11 136 12.1 102280 72
2004-02-03 12:24 51°22.411 3°2.697 11.6 123 12.2 102250 72
2004-02-03 12:25 51°22.419 3°2.794 12.3 114 12.2 102250 72
2004-02-03 12:26 51°22.415 3°2.883 13.8 95 12.1 102240 72
2004-02-03 12:27 51°22.404 3°2.964 14.4 84 12.2 102230 71
2004-02-03 12:28 51°22.387 3°3.035 12.1 75 12.1 102220 71
2004-02-03 12:29 51°22.369 3°3.101 14.4 63 12.1 102230 71
2004-02-03 12:30 51°22.366 3°3.151 11.3 78 12.1 102230 71
2004-02-03 12:31 51°22.373 3°3.194 10.8 75 12.1 102230 72
2004-02-03 12:32 51°22.345 3°3.232 15.2 15 12.2 102210 72
2004-02-03 12:33 51°22.305 3°3.127 17.9 331 12.3 102220 72
2004-02-03 12:34 51°22.257 3°2.875 20.1 341 12.4 102180 72
2004-02-03 12:35 51°22.183 3°2.571 19.6 338 12.5 102170 71
2004-02-03 12:36 51°22.094 3°2.275 19.9 342 12.4 102170 70
2004-02-03 12:37 51°22.002 3°1.982 20.5 342 12.4 102170 70
2004-02-03 12:38 51°21.909 3°1.687 20.1 343 12.4 102170 69
2004-02-03 12:39 51°21.818 3°1.389 20.3 344 12.3 102180 71
2004-02-03 12:40 51°21.726 3°1.091 18.9 344 12.3 102170 71
2004-02-03 12:41 51°21.635 3°0.791 19.8 342 12.3 102180 70
2004-02-03 12:42 51°21.542 3°0.492 19.5 340 12.3 102190 70
2004-02-03 12:43 51°21.449 3°0.194 18.8 344 12.3 102190 70
2004-02-03 12:44 51°21.357 2°59.894 18.1 345 12.3 102190 70
2004-02-03 12:45 51°21.265 2°59.594 17.2 344 12.3 102200 70
2004-02-03 12:46 51°21.173 2°59.291 17.1 343 12.3 102200 70
2004-02-03 12:47 51°21.082 2°58.991 17.6 342 12.3 102200 69
2004-02-03 12:48 51°20.99 2°58.692 18.4 342 12.3 102200 70
2004-02-03 12:49 51°20.898 2°58.39 17.1 342 12.3 102210 69
2004-02-03 12:50 51°20.805 2°58.085 18.5 342 12.3 102210 69
2004-02-03 12:51 51°20.713 2°57.786 17.4 341 12.3 102210 69
2004-02-03 12:52 51°20.622 2°57.486 16.4 346 12.3 102200 69
2004-02-03 12:53 51°20.53 2°57.184 18.2 343 12.3 102200 69
2004-02-03 12:54 51°20.438 2°56.88 19.4 345 12.4 102190 69
2004-02-03 12:55 51°20.346 2°56.578 17.8 344 12.4 102200 69
2004-02-03 12:56 51°20.255 2°56.275 18 342 12.4 102200 69
2004-02-03 12:57 51°20.165 2°55.976 18.5 341 12.5 102190 68
2004-02-03 12:58 51°20.075 2°55.673 20.1 348 12.5 102200 68
2004-02-03 12:59 51°19.985 2°55.372 18.8 340 12.6 102200 68
2004-02-03 13:00 51°19.894 2°55.069 18.3 341 12.6 102190 68
2004-02-03 13:01 51°19.804 2°54.767 19.5 340 12.6 102200 68
2004-02-03 13:02 51°19.714 2°54.464 19.1 341 12.6 102180 68
2004-02-03 13:03 51°19.625 2°54.161 17.5 338 12.6 102200 68
2004-02-03 13:04 51°19.534 2°53.853 17.3 341 12.6 102190 68
2004-02-03 13:05 51°19.442 2°53.547 17.8 343 12.6 102190 68
2004-02-03 13:06 51°19.351 2°53.24 18.7 340 12.5 102200 69
2004-02-03 13:07 51°19.261 2°52.93 16.4 342 12.5 102200 69
2004-02-03 13:08 51°19.169 2°52.622 16.1 339 12.4 102210 69
2004-02-03 13:09 51°19.079 2°52.314 17.4 343 12.4 102210 70
2004-02-03 13:10 51°18.988 2°52.004 16.6 340 12.3 102210 70
2004-02-03 13:11 51°18.897 2°51.695 16.2 343 12.3 102220 70
2004-02-03 13:12 51°18.791 2°51.402 16.9 357 12.2 102220 70
2004-02-03 13:13 51°18.647 2°51.198 14.2 7 12.2 102260 71
2004-02-03 13:14 51°18.529 2°51.072 12 345 12.2 102300 70
2004-02-03 13:15 51°18.516 2°50.976 9.9 42 12.2 102270 71
2004-02-03 13:16 51°18.532 2°50.977 8.9 299 12.3 102280 71
2004-02-03 13:17 51°18.549 2°50.986 8.2 285 12.3 102280 70
2004-02-03 13:18 51°18.594 2°50.964 7 228 12.2 102270 71
2004-02-03 13:19 51°18.661 2°50.985 5.3 210 12.3 102290 71
2004-02-03 13:20 51°18.711 2°51.042 5.4 173 12.4 102300 71
2004-02-03 13:21 51°18.75 2°51.113 6.7 155 12.5 102280 69
2004-02-03 13:22 51°18.781 2°51.193 7.3 142 12.5 102280 70
2004-02-03 13:23 51°18.805 2°51.276 8.8 133 12.4 102280 70
2004-02-03 13:24 51°18.827 2°51.36 9.1 135 12.4 102280 71
2004-02-03 13:25 51°18.854 2°51.441 7.8 148 12.4 102270 71
2004-02-03 13:26 51°18.884 2°51.521 9.8 150 12.4 102280 71
2004-02-03 13:27 51°18.906 2°51.606 10 133 12.5 102270 71
2004-02-03 13:28 51°18.919 2°51.692 9.7 125 12.4 102270 71
2004-02-03 13:29 51°18.93 2°51.777 9.7 128 12.4 102270 71
2004-02-03 13:30 51°18.94 2°51.861 8.9 130 12.3 102270 72
2004-02-03 13:31 51°18.951 2°51.946 8.6 128 12.2 102260 73
2004-02-03 13:32 51°18.965 2°52.031 12 127 12.2 102260 73
2004-02-03 13:33 51°18.987 2°52.116 9.4 146 12.2 102260 73
2004-02-03 13:34 51°19.012 2°52.199 9.3 144 12.2 102260 73
2004-02-03 13:35 51°19.041 2°52.28 9.7 140 12.2 102260 72
2004-02-03 13:36 51°19.064 2°52.365 11 129 12.2 102260 73
2004-02-03 13:37 51°19.075 2°52.45 8.5 127 12.2 102260 73
2004-02-03 13:38 51°19.084 2°52.538 10.6 120 12.2 102260 73
2004-02-03 13:39 51°19.095 2°52.631 8.7 130 12.1 102270 73
2004-02-03 13:40 51°19.116 2°52.727 8.2 145 12.1 102260 73
2004-02-03 13:41 51°19.14 2°52.82 7.9 138 12.1 102260 73
2004-02-03 13:42 51°19.163 2°52.908 9.2 127 12.1 102260 73
2004-02-03 13:43 51°19.184 2°52.996 9.6 136 12.1 102260 73
2004-02-03 13:44 51°19.202 2°53.087 8.4 130 12.1 102260 73
2004-02-03 13:45 51°19.221 2°53.18 9.5 128 12.2 102270 73
2004-02-03 13:46 51°19.241 2°53.271 7.9 132 12.2 102270 73
2004-02-03 13:47 51°19.262 2°53.364 8.6 132 12.2 102270 73
2004-02-03 13:48 51°19.284 2°53.456 7.7 137 12.2 102280 73
2004-02-03 13:49 51°19.306 2°53.547 8.3 225 12.2 102270 73
2004-02-03 13:50 51°19.318 2°53.635 8.5 118 12.2 102270 73
2004-02-03 13:51 51°19.324 2°53.7 7.5 120 12.1 102270 73
2004-02-03 13:52 51°19.327 2°53.751 9.1 112 12 102260 73
2004-02-03 13:53 51°19.33 2°53.792 9.4 104 12 102260 73
2004-02-03 13:54 51°19.329 2°53.831 10.8 88 11.9 102260 74
2004-02-03 13:55 51°19.294 2°53.863 10.8 30 11.9 102250 74
2004-02-03 13:56 51°19.25 2°53.839 11.3 12 12 102250 74
2004-02-03 13:57 51°19.214 2°53.794 12.2   12 102250 74
2004-02-03 13:58 51°19.18 2°53.755 12.6 15 12.1 102250 73
2004-02-03 13:59 51°19.146 2°53.721 10.7 6 12.1 102250 73
2004-02-03 14:00 51°19.114 2°53.676 11.6 2 12.1 102240 73
2004-02-03 14:01 51°19.086 2°53.621 10.2 357 12.1 102230 73
2004-02-03 14:02 51°19.064 2°53.569 13.2 3 12.1 102240 73
2004-02-03 14:03 51°19.038 2°53.519 11.9 2 12.2 102220 73
2004-02-03 14:04 51°19.021 2°53.461 12.4 345 12.3 102220 73
2004-02-03 14:05 51°19.018 2°53.395 13.5 332 12.6 102210 72
2004-02-03 14:06 51°19.026 2°53.325 11.8 320 12.6 102230 71
2004-02-03 14:07 51°19.038 2°53.254 12.6 320 12.5 102240 71
2004-02-03 14:08 51°19.051 2°53.185 12 318 12.4 102240 71
2004-02-03 14:09 51°19.068 2°53.113 12.5 41 12.3 102240 72
2004-02-03 14:10 51°19.086 2°53.046 12.3 228 12.2 102250 72
2004-02-03 14:11 51°19.107 2°52.98 12.6 230 12.2 102250 73
2004-02-03 14:12 51°19.131 2°52.918 11.8 307 12.2 102240 73
2004-02-03 14:13 51°19.155 2°52.855 11.9 313 12.2 102250 73
2004-02-03 14:14 51°19.178 2°52.792 11.5 229 12.1 102250 73
2004-02-03 14:15 51°19.202 2°52.724 11.8 314 12 102250 73
2004-02-03 14:16 51°19.227 2°52.662 13.6 307 11.9 102260 73
2004-02-03 14:17 51°19.254 2°52.602 11.7 306 11.9 102240 74
2004-02-03 14:18 51°19.284 2°52.539 12.2 305 12 102240 74
2004-02-03 14:19 51°19.316 2°52.479 13 304 12 102250 73
2004-02-03 14:20 51°19.348 2°52.423 12.3 296 12 102250 73
2004-02-03 14:21 51°19.381 2°52.371 12.8 297 11.9 102250 73
2004-02-03 14:22 51°19.418 2°52.313 11.7 280 11.9 102270 73
2004-02-03 14:23 51°19.459 2°52.27 11.8 271 11.9 102240 74
2004-02-03 14:24 51°19.503 2°52.238 13.3 269 11.8 102250 73
2004-02-03 14:25 51°19.556 2°52.206 8.1 253 11.8 102260 74
2004-02-03 14:26 51°19.599 2°52.2 7.9 254 11.9 102260 73
2004-02-03 14:27 51°19.632 2°52.199 11.2 260 12 102250 74
2004-02-03 14:28 51°19.671 2°52.167 15.9 304 12 102210 73
2004-02-03 14:29 51°19.645 2°52.048 15.2 35 12 102200 73
2004-02-03 14:30 51°19.533 2°52.14 15.3 52 12 102190 73
2004-02-03 14:31 51°19.333 2°52.191 18.3 37 12 102160 73
2004-02-03 14:32 51°19.118 2°52.212 20.2 35 12.1 102170 73
2004-02-03 14:33 51°18.902 2°52.23 20.4 37 12.3 102170 72
2004-02-03 14:34 51°18.685 2°52.243 19.2 37 12.4 102170 71
2004-02-03 14:35 51°18.471 2°52.255 18.3 32 12.4 102170 71
2004-02-03 14:36 51°18.255 2°52.264 18.7 32 12.5 102170 71
2004-02-03 14:37 51°18.04 2°52.274 17.4 33 12.5 102170 71
2004-02-03 14:38 51°17.823 2°52.285 18.8 27 12.5 102180 71
2004-02-03 14:39 51°17.608 2°52.296 19.9 28 12.5 102180 72
2004-02-03 14:40 51°17.393 2°52.311 17.8 35 12.8 102170 70
2004-02-03 14:41 51°17.193 2°52.438 16.3 51 12.8 102220 70
2004-02-03 14:42 51°17.049 2°52.704 13 73 12.6 102200 70
2004-02-03 14:43 51°16.915 2°52.984 14.2 66 12.5 102190 71
2004-02-03 14:44 51°16.772 2°53.258 13.7 69 12.5 102200 71
2004-02-03 14:45 51°16.63 2°53.538 13.1 66 12.5 102200 71
2004-02-03 14:46 51°16.485 2°53.807 13.8 68 12.4 102200 71
2004-02-03 14:47 51°16.345 2°54.058 12.7 65 12.5 102210 71
2004-02-03 14:48 51°16.268 2°54.227 11.3 88 12.6 102250 71
2004-02-03 14:49 51°16.245 2°54.286 10.2 61 12.8 102260 70
2004-02-03 14:50 51°16.244 2°54.305 11.7 53 12.8 102250 69
2004-02-03 14:51 51°16.215 2°54.332 12.7 39 12.9 102250 69
2004-02-03 14:52 51°16.167 2°54.335 11.3 20 13.1 102250 68
2004-02-03 14:53 51°16.121 2°54.299 13.2 359 13.2 102260 68
2004-02-03 14:54 51°16.076 2°54.247 13.6 1 13.3 102250 67
2004-02-03 14:55 51°16.035 2°54.189 13.3 350 13.4 102240 67
2004-02-03 14:56 51°15.998 2°54.132 13 352 13.4 102240 67
2004-02-03 14:57 51°15.965 2°54.07 13.7 345 13.5 102240 67
2004-02-03 14:58 51°15.933 2°54.003 13.3 343 13.5 102250 67
2004-02-03 14:59 51°15.902 2°53.931 11 340 13.7 102240 67
2004-02-03 15:00 51°15.87 2°53.862 11.9 343 13.7 102240 66
2004-02-03 15:01 51°15.83 2°53.792 13.5 354 13.7 102240 66
2004-02-03 15:02 51°15.788 2°53.735 12.1 354 13.8 102240 66
2004-02-03 15:03 51°15.749 2°53.676 11.7 346 13.9 102250 66
2004-02-03 15:04 51°15.713 2°53.603 11.8 337 13.7 102240 66
2004-02-03 15:05 51°15.685 2°53.522 13.4 333 13.7 102260 67
2004-02-03 15:06 51°15.658 2°53.442 11.8 337 13.9 102230 66
2004-02-03 15:07 51°15.629 2°53.364 10.4 332 13.8 102260 66
2004-02-03 15:08 51°15.604 2°53.28 12.7 327 13.7 102250 67
2004-02-03 15:09 51°15.585 2°53.186 12.9 316 13.8 102250 66
2004-02-03 15:10 51°15.572 2°53.087 12.4 316 13.7 102250 66
2004-02-03 15:11 51°15.561 2°52.988 12.3 313 13.7 102240 66
2004-02-03 15:12 51°15.552 2°52.887 12.3 318 13.7 102240 66
2004-02-03 15:13 51°15.546 2°52.791 12.9 314 13.7 102240 66
2004-02-03 15:14 51°15.545 2°52.7 10.3 313 13.6 102240 66
2004-02-03 15:15 51°15.546 2°52.606 13.6 314 13.5 102240 66
2004-02-03 15:16 51°15.551 2°52.515 11.5 300 13.6 102260 66
2004-02-03 15:17 51°15.579 2°52.442 7 257 13.5 102270 66
2004-02-03 15:18 51°15.61 2°52.413 8.2 247 13.4 102280 66
2004-02-03 15:19 51°15.637 2°52.395 6.6 253 13.3 102290 67
2004-02-03 15:20 51°15.691 2°52.38 9.1 216 13.2 102270 67
2004-02-03 15:21 51°15.744 2°52.433 8.4 158 13.3 102280 66
2004-02-03 15:22 51°15.778 2°52.506 7.6 140 13.3 102270 65
2004-02-03 15:23 51°15.8 2°52.582 8.7 136 13.2 102270 67
2004-02-03 15:24 51°15.814 2°52.659 8.4 123 13.1 102260 66
2004-02-03 15:25 51°15.82 2°52.738 9.1 117 13.1 102260 67
2004-02-03 15:26 51°15.82 2°52.815 9.4 102 13 102250 67
2004-02-03 15:27 51°15.812 2°52.889 9.8 94 13.2 102250 67
2004-02-03 15:28 51°15.798 2°52.958 9.9 97 13.3 102240 66
2004-02-03 15:29 51°15.78 2°53.022 11 98 13.3 102230 66
2004-02-03 15:30 51°15.761 2°53.085 10.8 92 13.3 102230 65
2004-02-03 15:31 51°15.741 2°53.146 9.9 95 13.2 102230 65
2004-02-03 15:32 51°15.72 2°53.207 10.9 91 13.2 102240 66
2004-02-03 15:33 51°15.699 2°53.268 10.8 88 13.2 102240 66
2004-02-03 15:34 51°15.677 2°53.329 11.2 90 13.3 102250 65
2004-02-03 15:35 51°15.656 2°53.388 10.5 98 13.2 102240 65
2004-02-03 15:36 51°15.635 2°53.449 11.6 100 13.2 102250 65
2004-02-03 15:37 51°15.613 2°53.51 13.1 95 13.4 102250 64
2004-02-03 15:38 51°15.591 2°53.569 10.8 94 13.4 102240 64
2004-02-03 15:39 51°15.568 2°53.628 10.2 93 13.4 102240 64
2004-02-03 15:40 51°15.545 2°53.685 12.1 93 13.3 102250 65
2004-02-03 15:41 51°15.523 2°53.743 10.8 96 13.5 102240 64
2004-02-03 15:42 51°15.502 2°53.801 13.1 102 13.5 102240 63
2004-02-03 15:43 51°15.48 2°53.857 10.6 105 13.6 102240 62
2004-02-03 15:44 51°15.455 2°53.913 12.4 92 13.5 102250 62
2004-02-03 15:45 51°15.431 2°53.97 10.9 95 13.6 102250 62
2004-02-03 15:46 51°15.408 2°54.028 12.2 98 13.5 102250 63
2004-02-03 15:47 51°15.383 2°54.086 10.8 96 13.6 102240 63
2004-02-03 15:48 51°15.359 2°54.144 12.1 98 13.6 102240 62
2004-02-03 15:49 51°15.339 2°54.205 11.3 88 13.6 102240 62
2004-02-03 15:50 51°15.312 2°54.254 10.2 77 13.6 102240 62
2004-02-03 15:51 51°15.29 2°54.282 10 78 13.7 102230 61
2004-02-03 15:52 51°15.277 2°54.301 9.6 71 13.9 102240 61
2004-02-03 15:53 51°15.269 2°54.315 10.6 78 13.9 102240 61
2004-02-03 15:54 51°15.247 2°54.341 12.1 60 14.1 102230 59
2004-02-03 15:55 51°15.151 2°54.38 15.2 38 14.2 102220 59
2004-02-03 15:56 51°14.973 2°54.473 17.1 47 14.4 102210 58
2004-02-03 15:57 51°14.788 2°54.609 17.4 51 14.6 102190 58
2004-02-03 15:58 51°14.609 2°54.763 17 49 14.7 102210 57
2004-02-03 15:59 51°14.445 2°54.957 12.3 53 14.9 102200 57